sensor_id;sensor_type;location;lat;lon;timestamp;P1;durP1;ratioP1;P2;durP2;ratioP2
28605;SDS011;46498;49.968;7.754;2023-06-14T00:01:14;6.80;;;4.97;;
28605;SDS011;46498;49.968;7.754;2023-06-14T00:06:15;11.05;;;4.80;;
28605;SDS011;46498;49.968;7.754;2023-06-14T00:11:16;6.62;;;4.45;;
28605;SDS011;46498;49.968;7.754;2023-06-14T00:16:17;8.18;;;4.00;;
28605;SDS011;46498;49.968;7.754;2023-06-14T00:21:18;7.18;;;4.43;;
28605;SDS011;46498;49.968;7.754;2023-06-14T00:26:19;5.22;;;4.22;;
28605;SDS011;46498;49.968;7.754;2023-06-14T00:31:21;7.60;;;4.28;;
28605;SDS011;46498;49.968;7.754;2023-06-14T00:36:22;9.35;;;4.55;;
28605;SDS011;46498;49.968;7.754;2023-06-14T00:41:23;6.68;;;4.00;;
28605;SDS011;46498;49.968;7.754;2023-06-14T00:46:23;8.77;;;4.30;;
28605;SDS011;46498;49.968;7.754;2023-06-14T00:51:25;7.75;;;4.25;;
28605;SDS011;46498;49.968;7.754;2023-06-14T00:56:27;8.05;;;4.97;;
28605;SDS011;46498;49.968;7.754;2023-06-14T01:01:28;7.28;;;3.97;;
28605;SDS011;46498;49.968;7.754;2023-06-14T01:06:52;11.60;;;4.82;;
28605;SDS011;46498;49.968;7.754;2023-06-14T01:19:37;11.63;;;4.62;;
28605;SDS011;46498;49.968;7.754;2023-06-14T01:24:40;8.52;;;4.90;;
28605;SDS011;46498;49.968;7.754;2023-06-14T01:29:45;8.90;;;4.82;;
28605;SDS011;46498;49.968;7.754;2023-06-14T01:34:49;10.98;;;4.75;;
28605;SDS011;46498;49.968;7.754;2023-06-14T01:39:50;7.82;;;4.20;;
28605;SDS011;46498;49.968;7.754;2023-06-14T01:44:53;8.23;;;5.00;;
28605;SDS011;46498;49.968;7.754;2023-06-14T01:49:54;9.65;;;4.30;;
28605;SDS011;46498;49.968;7.754;2023-06-14T01:54:55;10.13;;;4.57;;
28605;SDS011;46498;49.968;7.754;2023-06-14T01:59:56;7.18;;;4.37;;
28605;SDS011;46498;49.968;7.754;2023-06-14T02:04:59;7.35;;;4.47;;
28605;SDS011;46498;49.968;7.754;2023-06-14T02:10:00;8.70;;;4.65;;
28605;SDS011;46498;49.968;7.754;2023-06-14T02:15:01;6.85;;;4.30;;
28605;SDS011;46498;49.968;7.754;2023-06-14T02:20:03;6.97;;;4.25;;
28605;SDS011;46498;49.968;7.754;2023-06-14T02:25:05;9.35;;;4.20;;
28605;SDS011;46498;49.968;7.754;2023-06-14T02:30:08;7.32;;;4.40;;
28605;SDS011;46498;49.968;7.754;2023-06-14T02:35:09;11.75;;;4.28;;
28605;SDS011;46498;49.968;7.754;2023-06-14T02:40:11;7.97;;;4.40;;
28605;SDS011;46498;49.968;7.754;2023-06-14T02:45:12;8.15;;;4.03;;
28605;SDS011;46498;49.968;7.754;2023-06-14T02:50:13;5.62;;;4.20;;
28605;SDS011;46498;49.968;7.754;2023-06-14T02:55:15;10.60;;;4.00;;
28605;SDS011;46498;49.968;7.754;2023-06-14T03:00:17;7.05;;;4.25;;
28605;SDS011;46498;49.968;7.754;2023-06-14T03:05:20;6.43;;;4.00;;
28605;SDS011;46498;49.968;7.754;2023-06-14T03:10:22;7.28;;;3.78;;
28605;SDS011;46498;49.968;7.754;2023-06-14T03:15:23;5.97;;;3.78;;
28605;SDS011;46498;49.968;7.754;2023-06-14T03:20:25;8.20;;;4.50;;
28605;SDS011;46498;49.968;7.754;2023-06-14T03:25:29;6.50;;;4.03;;
28605;SDS011;46498;49.968;7.754;2023-06-14T03:30:31;8.02;;;4.15;;
28605;SDS011;46498;49.968;7.754;2023-06-14T03:35:35;8.80;;;4.22;;
28605;SDS011;46498;49.968;7.754;2023-06-14T03:40:36;9.10;;;4.60;;
28605;SDS011;46498;49.968;7.754;2023-06-14T03:45:37;8.73;;;4.65;;
28605;SDS011;46498;49.968;7.754;2023-06-14T03:50:39;8.18;;;4.55;;
28605;SDS011;46498;49.968;7.754;2023-06-14T03:55:41;10.02;;;4.40;;
28605;SDS011;46498;49.968;7.754;2023-06-14T04:01:14;9.30;;;4.53;;
28605;SDS011;46498;49.968;7.754;2023-06-14T04:06:15;10.55;;;4.87;;
28605;SDS011;46498;49.968;7.754;2023-06-14T04:11:19;8.73;;;5.00;;
28605;SDS011;46498;49.968;7.754;2023-06-14T04:16:20;11.10;;;4.43;;
28605;SDS011;46498;49.968;7.754;2023-06-14T04:21:21;8.52;;;5.15;;
28605;SDS011;46498;49.968;7.754;2023-06-14T04:26:26;7.35;;;4.70;;
28605;SDS011;46498;49.968;7.754;2023-06-14T04:31:31;7.57;;;4.97;;
28605;SDS011;46498;49.968;7.754;2023-06-14T04:36:40;11.15;;;4.57;;
28605;SDS011;46498;49.968;7.754;2023-06-14T04:41:51;7.18;;;4.18;;
28605;SDS011;46498;49.968;7.754;2023-06-14T04:46:53;16.00;;;4.73;;
28605;SDS011;46498;49.968;7.754;2023-06-14T04:51:57;15.60;;;4.95;;
28605;SDS011;46498;49.968;7.754;2023-06-14T04:57:03;11.40;;;4.53;;
28605;SDS011;46498;49.968;7.754;2023-06-14T05:02:06;8.70;;;4.03;;
28605;SDS011;46498;49.968;7.754;2023-06-14T05:07:08;12.05;;;4.37;;
28605;SDS011;46498;49.968;7.754;2023-06-14T05:12:15;9.55;;;4.37;;
28605;SDS011;46498;49.968;7.754;2023-06-14T05:17:19;9.52;;;4.53;;
28605;SDS011;46498;49.968;7.754;2023-06-14T05:22:21;8.68;;;4.37;;
28605;SDS011;46498;49.968;7.754;2023-06-14T05:27:22;8.35;;;5.47;;
28605;SDS011;46498;49.968;7.754;2023-06-14T05:32:23;5.87;;;4.35;;
28605;SDS011;46498;49.968;7.754;2023-06-14T05:37:24;8.27;;;4.68;;
28605;SDS011;46498;49.968;7.754;2023-06-14T05:42:25;6.70;;;4.43;;
28605;SDS011;46498;49.968;7.754;2023-06-14T05:47:26;7.95;;;4.72;;
28605;SDS011;46498;49.968;7.754;2023-06-14T05:52:28;19.53;;;4.50;;
28605;SDS011;46498;49.968;7.754;2023-06-14T05:57:30;7.83;;;4.97;;
28605;SDS011;46498;49.968;7.754;2023-06-14T06:02:31;10.32;;;4.55;;
28605;SDS011;46498;49.968;7.754;2023-06-14T06:07:32;7.97;;;4.45;;
28605;SDS011;46498;49.968;7.754;2023-06-14T06:12:33;9.23;;;4.25;;
28605;SDS011;46498;49.968;7.754;2023-06-14T06:17:33;8.02;;;3.83;;
28605;SDS011;46498;49.968;7.754;2023-06-14T06:22:55;8.23;;;4.28;;
28605;SDS011;46498;49.968;7.754;2023-06-14T06:27:57;7.90;;;4.10;;
28605;SDS011;46498;49.968;7.754;2023-06-14T06:32:58;12.55;;;3.83;;
28605;SDS011;46498;49.968;7.754;2023-06-14T06:38:00;6.65;;;3.35;;
28605;SDS011;46498;49.968;7.754;2023-06-14T06:43:02;7.65;;;3.50;;
28605;SDS011;46498;49.968;7.754;2023-06-14T06:48:04;9.32;;;3.95;;
28605;SDS011;46498;49.968;7.754;2023-06-14T06:53:05;10.88;;;3.42;;
28605;SDS011;46498;49.968;7.754;2023-06-14T06:58:07;6.95;;;3.35;;
28605;SDS011;46498;49.968;7.754;2023-06-14T07:03:08;10.68;;;3.70;;
28605;SDS011;46498;49.968;7.754;2023-06-14T07:08:09;5.90;;;3.47;;
28605;SDS011;46498;49.968;7.754;2023-06-14T07:13:10;7.80;;;3.33;;
28605;SDS011;46498;49.968;7.754;2023-06-14T07:18:12;9.27;;;3.53;;
28605;SDS011;46498;49.968;7.754;2023-06-14T07:23:16;9.13;;;3.55;;
28605;SDS011;46498;49.968;7.754;2023-06-14T07:28:17;10.73;;;3.28;;
28605;SDS011;46498;49.968;7.754;2023-06-14T07:33:19;10.10;;;3.30;;
28605;SDS011;46498;49.968;7.754;2023-06-14T07:38:20;8.18;;;3.78;;
28605;SDS011;46498;49.968;7.754;2023-06-14T07:43:21;4.68;;;3.00;;
28605;SDS011;46498;49.968;7.754;2023-06-14T07:48:23;10.15;;;2.92;;
28605;SDS011;46498;49.968;7.754;2023-06-14T07:53:26;7.25;;;3.03;;
28605;SDS011;46498;49.968;7.754;2023-06-14T07:58:28;7.07;;;3.27;;
28605;SDS011;46498;49.968;7.754;2023-06-14T08:03:29;5.10;;;2.60;;
28605;SDS011;46498;49.968;7.754;2023-06-14T08:08:31;8.77;;;2.93;;
28605;SDS011;46498;49.968;7.754;2023-06-14T08:13:32;9.05;;;3.10;;
28605;SDS011;46498;49.968;7.754;2023-06-14T08:18:33;9.70;;;2.90;;
28605;SDS011;46498;49.968;7.754;2023-06-14T08:23:35;5.97;;;3.20;;
28605;SDS011;46498;49.968;7.754;2023-06-14T08:28:36;7.78;;;3.12;;
28605;SDS011;46498;49.968;7.754;2023-06-14T08:33:37;11.55;;;3.33;;
28605;SDS011;46498;49.968;7.754;2023-06-14T08:38:39;4.12;;;2.80;;
28605;SDS011;46498;49.968;7.754;2023-06-14T08:43:40;12.80;;;3.78;;
28605;SDS011;46498;49.968;7.754;2023-06-14T08:48:41;9.88;;;2.85;;
28605;SDS011;46498;49.968;7.754;2023-06-14T08:53:43;4.47;;;2.93;;
28605;SDS011;46498;49.968;7.754;2023-06-14T08:58:45;4.15;;;2.45;;
28605;SDS011;46498;49.968;7.754;2023-06-14T09:03:49;5.60;;;2.85;;
28605;SDS011;46498;49.968;7.754;2023-06-14T09:08:51;5.18;;;2.70;;
28605;SDS011;46498;49.968;7.754;2023-06-14T09:13:52;4.10;;;2.47;;
28605;SDS011;46498;49.968;7.754;2023-06-14T09:18:53;3.17;;;2.05;;
28605;SDS011;46498;49.968;7.754;2023-06-14T09:23:54;4.40;;;2.72;;
28605;SDS011;46498;49.968;7.754;2023-06-14T09:28:56;5.45;;;2.20;;
28605;SDS011;46498;49.968;7.754;2023-06-14T09:33:58;9.27;;;3.03;;
28605;SDS011;46498;49.968;7.754;2023-06-14T09:39:00;4.25;;;2.40;;
28605;SDS011;46498;49.968;7.754;2023-06-14T09:44:09;5.25;;;2.60;;
28605;SDS011;46498;49.968;7.754;2023-06-14T09:49:19;10.77;;;2.40;;
28605;SDS011;46498;49.968;7.754;2023-06-14T09:54:21;8.43;;;2.40;;
28605;SDS011;46498;49.968;7.754;2023-06-14T09:59:25;3.25;;;2.10;;
28605;SDS011;46498;49.968;7.754;2023-06-14T10:04:30;4.57;;;2.20;;
28605;SDS011;46498;49.968;7.754;2023-06-14T10:09:33;8.18;;;2.22;;
28605;SDS011;46498;49.968;7.754;2023-06-14T10:14:35;7.75;;;2.83;;
28605;SDS011;46498;49.968;7.754;2023-06-14T10:19:37;3.12;;;2.10;;
28605;SDS011;46498;49.968;7.754;2023-06-14T10:24:53;6.75;;;2.42;;
28605;SDS011;46498;49.968;7.754;2023-06-14T10:30:04;3.90;;;2.00;;
28605;SDS011;46498;49.968;7.754;2023-06-14T10:35:08;5.28;;;2.50;;
28605;SDS011;46498;49.968;7.754;2023-06-14T10:40:09;7.87;;;2.35;;
28605;SDS011;46498;49.968;7.754;2023-06-14T10:45:31;5.53;;;2.25;;
28605;SDS011;46498;49.968;7.754;2023-06-14T10:50:31;6.30;;;2.40;;
28605;SDS011;46498;49.968;7.754;2023-06-14T10:55:34;6.37;;;2.37;;
28605;SDS011;46498;49.968;7.754;2023-06-14T11:00:36;4.18;;;2.40;;
28605;SDS011;46498;49.968;7.754;2023-06-14T11:05:48;4.97;;;2.00;;
28605;SDS011;46498;49.968;7.754;2023-06-14T11:10:51;5.43;;;2.20;;
28605;SDS011;46498;49.968;7.754;2023-06-14T11:15:54;2.72;;;2.15;;
28605;SDS011;46498;49.968;7.754;2023-06-14T11:20:58;3.50;;;2.03;;
28605;SDS011;46498;49.968;7.754;2023-06-14T11:25:59;4.12;;;1.80;;
28605;SDS011;46498;49.968;7.754;2023-06-14T11:31:01;4.80;;;2.03;;
28605;SDS011;46498;49.968;7.754;2023-06-14T11:36:04;6.72;;;1.83;;
28605;SDS011;46498;49.968;7.754;2023-06-14T11:41:08;4.35;;;1.85;;
28605;SDS011;46498;49.968;7.754;2023-06-14T11:46:13;2.67;;;1.65;;
28605;SDS011;46498;49.968;7.754;2023-06-14T11:51:16;2.33;;;1.70;;
28605;SDS011;46498;49.968;7.754;2023-06-14T11:56:17;3.75;;;1.85;;
28605;SDS011;46498;49.968;7.754;2023-06-14T12:01:18;2.58;;;1.73;;
28605;SDS011;46498;49.968;7.754;2023-06-14T12:06:26;3.35;;;1.65;;
28605;SDS011;46498;49.968;7.754;2023-06-14T12:11:33;2.53;;;1.73;;
28605;SDS011;46498;49.968;7.754;2023-06-14T12:16:37;2.15;;;1.65;;
28605;SDS011;46498;49.968;7.754;2023-06-14T12:21:40;6.85;;;2.15;;
28605;SDS011;46498;49.968;7.754;2023-06-14T12:26:42;2.90;;;1.73;;
28605;SDS011;46498;49.968;7.754;2023-06-14T12:31:43;6.20;;;1.73;;
28605;SDS011;46498;49.968;7.754;2023-06-14T12:36:44;3.30;;;2.20;;
28605;SDS011;46498;49.968;7.754;2023-06-14T12:41:47;2.20;;;1.75;;
28605;SDS011;46498;49.968;7.754;2023-06-14T12:51:51;5.47;;;2.03;;
28605;SDS011;46498;49.968;7.754;2023-06-14T12:56:52;3.30;;;1.92;;
28605;SDS011;46498;49.968;7.754;2023-06-14T13:01:55;7.12;;;2.00;;
28605;SDS011;46498;49.968;7.754;2023-06-14T13:06:56;3.22;;;2.10;;
28605;SDS011;46498;49.968;7.754;2023-06-14T13:11:57;2.37;;;1.90;;
28605;SDS011;46498;49.968;7.754;2023-06-14T13:16:58;5.47;;;2.03;;
28605;SDS011;46498;49.968;7.754;2023-06-14T13:21:59;3.42;;;2.10;;
28605;SDS011;46498;49.968;7.754;2023-06-14T13:26:59;3.17;;;2.03;;
28605;SDS011;46498;49.968;7.754;2023-06-14T13:32:01;6.28;;;2.25;;
28605;SDS011;46498;49.968;7.754;2023-06-14T13:37:03;3.35;;;1.83;;
28605;SDS011;46498;49.968;7.754;2023-06-14T13:42:05;5.80;;;1.70;;
28605;SDS011;46498;49.968;7.754;2023-06-14T13:47:06;5.22;;;1.87;;
28605;SDS011;46498;49.968;7.754;2023-06-14T13:52:07;4.65;;;2.05;;
28605;SDS011;46498;49.968;7.754;2023-06-14T13:57:08;3.08;;;2.33;;
28605;SDS011;46498;49.968;7.754;2023-06-14T14:02:10;6.95;;;2.20;;
28605;SDS011;46498;49.968;7.754;2023-06-14T14:07:12;7.40;;;2.00;;
28605;SDS011;46498;49.968;7.754;2023-06-14T14:12:13;3.80;;;1.98;;
28605;SDS011;46498;49.968;7.754;2023-06-14T14:17:14;7.60;;;2.17;;
28605;SDS011;46498;49.968;7.754;2023-06-14T14:22:15;2.40;;;2.00;;
28605;SDS011;46498;49.968;7.754;2023-06-14T14:27:16;2.72;;;2.08;;
28605;SDS011;46498;49.968;7.754;2023-06-14T14:32:17;5.57;;;2.10;;
28605;SDS011;46498;49.968;7.754;2023-06-14T14:37:18;3.00;;;2.40;;
28605;SDS011;46498;49.968;7.754;2023-06-14T14:42:19;3.37;;;2.10;;
28605;SDS011;46498;49.968;7.754;2023-06-14T14:47:20;4.40;;;2.12;;
28605;SDS011;46498;49.968;7.754;2023-06-14T14:52:21;5.97;;;2.28;;
28605;SDS011;46498;49.968;7.754;2023-06-14T14:57:25;5.85;;;2.47;;
28605;SDS011;46498;49.968;7.754;2023-06-14T15:02:26;7.35;;;2.40;;
28605;SDS011;46498;49.968;7.754;2023-06-14T15:07:27;10.13;;;2.28;;
28605;SDS011;46498;49.968;7.754;2023-06-14T15:12:28;2.92;;;2.20;;
28605;SDS011;46498;49.968;7.754;2023-06-14T15:22:32;4.45;;;2.25;;
28605;SDS011;46498;49.968;7.754;2023-06-14T15:27:33;3.12;;;2.20;;
28605;SDS011;46498;49.968;7.754;2023-06-14T15:32:34;5.05;;;2.45;;
28605;SDS011;46498;49.968;7.754;2023-06-14T15:37:35;5.25;;;2.45;;
28605;SDS011;46498;49.968;7.754;2023-06-14T15:42:35;4.32;;;2.53;;
28605;SDS011;46498;49.968;7.754;2023-06-14T15:47:37;4.93;;;2.53;;
28605;SDS011;46498;49.968;7.754;2023-06-14T15:52:38;7.47;;;2.92;;
28605;SDS011;46498;49.968;7.754;2023-06-14T15:57:39;6.35;;;2.28;;
28605;SDS011;46498;49.968;7.754;2023-06-14T16:02:40;4.87;;;2.60;;
28605;SDS011;46498;49.968;7.754;2023-06-14T16:07:41;3.47;;;2.58;;
28605;SDS011;46498;49.968;7.754;2023-06-14T16:12:42;4.62;;;2.55;;
28605;SDS011;46498;49.968;7.754;2023-06-14T16:17:43;3.55;;;2.40;;
28605;SDS011;46498;49.968;7.754;2023-06-14T16:22:44;7.10;;;2.95;;
28605;SDS011;46498;49.968;7.754;2023-06-14T16:27:45;4.47;;;2.70;;
28605;SDS011;46498;49.968;7.754;2023-06-14T16:32:46;7.25;;;2.72;;
28605;SDS011;46498;49.968;7.754;2023-06-14T16:37:46;3.45;;;2.55;;
28605;SDS011;46498;49.968;7.754;2023-06-14T16:42:47;5.60;;;2.30;;
28605;SDS011;46498;49.968;7.754;2023-06-14T16:47:49;5.03;;;2.30;;
28605;SDS011;46498;49.968;7.754;2023-06-14T16:52:50;5.68;;;3.03;;
28605;SDS011;46498;49.968;7.754;2023-06-14T16:57:51;7.12;;;2.70;;
28605;SDS011;46498;49.968;7.754;2023-06-14T17:02:52;5.57;;;2.60;;
28605;SDS011;46498;49.968;7.754;2023-06-14T17:07:55;3.95;;;2.72;;
28605;SDS011;46498;49.968;7.754;2023-06-14T17:12:55;8.45;;;2.80;;
28605;SDS011;46498;49.968;7.754;2023-06-14T17:17:57;3.78;;;2.67;;
28605;SDS011;46498;49.968;7.754;2023-06-14T17:22:57;3.67;;;2.25;;
28605;SDS011;46498;49.968;7.754;2023-06-14T17:27:58;7.55;;;2.80;;
28605;SDS011;46498;49.968;7.754;2023-06-14T17:32:59;5.78;;;2.60;;
28605;SDS011;46498;49.968;7.754;2023-06-14T17:38:00;6.82;;;2.40;;
28605;SDS011;46498;49.968;7.754;2023-06-14T17:43:01;4.43;;;2.60;;
28605;SDS011;46498;49.968;7.754;2023-06-14T17:48:02;4.05;;;2.40;;
28605;SDS011;46498;49.968;7.754;2023-06-14T17:53:03;3.90;;;2.50;;
28605;SDS011;46498;49.968;7.754;2023-06-14T17:58:06;3.85;;;2.33;;
28605;SDS011;46498;49.968;7.754;2023-06-14T18:03:07;3.40;;;2.45;;
28605;SDS011;46498;49.968;7.754;2023-06-14T18:08:08;4.80;;;2.15;;
28605;SDS011;46498;49.968;7.754;2023-06-14T18:13:09;4.37;;;2.30;;
28605;SDS011;46498;49.968;7.754;2023-06-14T18:18:10;4.15;;;2.25;;
28605;SDS011;46498;49.968;7.754;2023-06-14T18:23:11;2.60;;;2.00;;
28605;SDS011;46498;49.968;7.754;2023-06-14T18:28:13;5.18;;;2.17;;
28605;SDS011;46498;49.968;7.754;2023-06-14T18:33:14;3.85;;;2.37;;
28605;SDS011;46498;49.968;7.754;2023-06-14T18:38:16;3.97;;;2.57;;
28605;SDS011;46498;49.968;7.754;2023-06-14T18:43:17;4.12;;;2.12;;
28605;SDS011;46498;49.968;7.754;2023-06-14T18:48:18;3.63;;;2.17;;
28605;SDS011;46498;49.968;7.754;2023-06-14T18:53:20;5.45;;;2.55;;
28605;SDS011;46498;49.968;7.754;2023-06-14T18:58:21;4.20;;;2.27;;
28605;SDS011;46498;49.968;7.754;2023-06-14T19:03:23;4.45;;;2.70;;
28605;SDS011;46498;49.968;7.754;2023-06-14T19:08:24;5.10;;;2.47;;
28605;SDS011;46498;49.968;7.754;2023-06-14T19:13:25;2.67;;;2.30;;
28605;SDS011;46498;49.968;7.754;2023-06-14T19:18:26;3.25;;;2.22;;
28605;SDS011;46498;49.968;7.754;2023-06-14T19:23:28;3.42;;;2.33;;
28605;SDS011;46498;49.968;7.754;2023-06-14T19:28:29;5.03;;;2.47;;
28605;SDS011;46498;49.968;7.754;2023-06-14T19:33:30;3.58;;;2.20;;
28605;SDS011;46498;49.968;7.754;2023-06-14T19:38:31;3.65;;;2.03;;
28605;SDS011;46498;49.968;7.754;2023-06-14T19:43:32;4.90;;;2.83;;
28605;SDS011;46498;49.968;7.754;2023-06-14T19:48:33;5.80;;;2.40;;
28605;SDS011;46498;49.968;7.754;2023-06-14T19:53:34;6.95;;;2.60;;
28605;SDS011;46498;49.968;7.754;2023-06-14T19:58:35;4.35;;;2.42;;
28605;SDS011;46498;49.968;7.754;2023-06-14T20:03:37;4.05;;;2.30;;
28605;SDS011;46498;49.968;7.754;2023-06-14T20:08:38;3.30;;;2.33;;
28605;SDS011;46498;49.968;7.754;2023-06-14T20:13:39;4.28;;;2.60;;
28605;SDS011;46498;49.968;7.754;2023-06-14T20:18:40;3.53;;;2.47;;
28605;SDS011;46498;49.968;7.754;2023-06-14T20:23:41;5.45;;;2.70;;
28605;SDS011;46498;49.968;7.754;2023-06-14T20:28:42;7.25;;;3.03;;
28605;SDS011;46498;49.968;7.754;2023-06-14T20:33:43;4.57;;;2.85;;
28605;SDS011;46498;49.968;7.754;2023-06-14T20:38:44;3.95;;;2.60;;
28605;SDS011;46498;49.968;7.754;2023-06-14T20:43:45;4.45;;;2.65;;
28605;SDS011;46498;49.968;7.754;2023-06-14T20:48:48;4.05;;;2.65;;
28605;SDS011;46498;49.968;7.754;2023-06-14T20:53:50;7.37;;;2.67;;
28605;SDS011;46498;49.968;7.754;2023-06-14T20:58:50;5.10;;;2.78;;
28605;SDS011;46498;49.968;7.754;2023-06-14T21:03:52;5.25;;;2.55;;
28605;SDS011;46498;49.968;7.754;2023-06-14T21:08:53;4.70;;;2.75;;
28605;SDS011;46498;49.968;7.754;2023-06-14T21:13:54;5.00;;;3.05;;
28605;SDS011;46498;49.968;7.754;2023-06-14T21:18:55;2.97;;;2.28;;
28605;SDS011;46498;49.968;7.754;2023-06-14T21:23:56;4.53;;;2.80;;
28605;SDS011;46498;49.968;7.754;2023-06-14T21:28:57;3.72;;;2.78;;
28605;SDS011;46498;49.968;7.754;2023-06-14T21:33:58;4.70;;;2.42;;
28605;SDS011;46498;49.968;7.754;2023-06-14T21:38:59;4.62;;;2.72;;
28605;SDS011;46498;49.968;7.754;2023-06-14T21:44:00;4.68;;;2.83;;
28605;SDS011;46498;49.968;7.754;2023-06-14T21:49:01;4.82;;;2.50;;
28605;SDS011;46498;49.968;7.754;2023-06-14T21:54:02;3.60;;;2.45;;
28605;SDS011;46498;49.968;7.754;2023-06-14T21:59:03;7.85;;;2.28;;
28605;SDS011;46498;49.968;7.754;2023-06-14T22:04:04;4.12;;;2.70;;
28605;SDS011;46498;49.968;7.754;2023-06-14T22:09:05;4.43;;;2.50;;
28605;SDS011;46498;49.968;7.754;2023-06-14T22:14:07;2.90;;;2.58;;
28605;SDS011;46498;49.968;7.754;2023-06-14T22:19:11;3.90;;;2.70;;
28605;SDS011;46498;49.968;7.754;2023-06-14T22:24:12;9.18;;;2.50;;
28605;SDS011;46498;49.968;7.754;2023-06-14T22:29:14;6.22;;;2.53;;
28605;SDS011;46498;49.968;7.754;2023-06-14T22:34:18;8.52;;;2.78;;
28605;SDS011;46498;49.968;7.754;2023-06-14T22:39:19;5.28;;;2.00;;
28605;SDS011;46498;49.968;7.754;2023-06-14T22:44:20;5.50;;;2.80;;
28605;SDS011;46498;49.968;7.754;2023-06-14T22:49:22;4.40;;;2.75;;
28605;SDS011;46498;49.968;7.754;2023-06-14T22:54:24;3.70;;;2.25;;
28605;SDS011;46498;49.968;7.754;2023-06-14T22:59:25;5.60;;;2.83;;
28605;SDS011;46498;49.968;7.754;2023-06-14T23:04:27;5.05;;;2.50;;
28605;SDS011;46498;49.968;7.754;2023-06-14T23:09:28;4.72;;;2.28;;
28605;SDS011;46498;49.968;7.754;2023-06-14T23:14:30;2.80;;;2.40;;
28605;SDS011;46498;49.968;7.754;2023-06-14T23:19:31;5.53;;;2.37;;
28605;SDS011;46498;49.968;7.754;2023-06-14T23:24:33;5.72;;;2.12;;
28605;SDS011;46498;49.968;7.754;2023-06-14T23:29:35;2.97;;;2.20;;
28605;SDS011;46498;49.968;7.754;2023-06-14T23:34:36;4.00;;;2.62;;
28605;SDS011;46498;49.968;7.754;2023-06-14T23:39:37;4.50;;;2.22;;
28605;SDS011;46498;49.968;7.754;2023-06-14T23:44:48;7.37;;;2.47;;
28605;SDS011;46498;49.968;7.754;2023-06-14T23:49:50;4.20;;;2.37;;
28605;SDS011;46498;49.968;7.754;2023-06-14T23:54:51;3.70;;;2.37;;
28605;SDS011;46498;49.968;7.754;2023-06-14T23:59:52;3.33;;;2.35;;
